Latest Coastal Weather Observations for Gabo Island

IDT60701

Issued at 10:35 pm EST Wednesday 20 August 2014 (issued every 10 minutes, with the page automatically refreshed every 10 minutes)

About coastal observations | Map of coastal stations | Coastal observations for TAS | Marine services | Other Formats
Station Details ID: 084016 Name: GABO ISLAND LIGHTHOUSE Lat: -37.57 Lon: 149.92 Height: 15.2 m
Data from the previous 72 hours. | See also: Recent months at Gabo Island
Date/Time
EST
Temp

°C
Wind Pressure Rain
since 9am
mm
Weather Cloud Vis
km
Sea
Height
m
Swell
Dir
 
Speed
knots
Gust
knots
hPa Trend Height
m
Period
s
Dir
20/10:30pm 10.5 WNW 10 14 1028.6 - 0.0 - - - - - - -
20/10:00pm 10.7 WNW 9 11 1028.6 - 0.0 - - - - - - -
20/09:30pm 10.8 W 8 11 1028.8 - 0.0 - - - - - - -
20/09:00pm 11.7 - 10 11 1028.7 - 0.0 Fine Clear 40 - 1.0 - SE
20/08:30pm 12.2 WSW 11 13 1028.6 - 0.0 - - - - - - -
20/08:00pm 12.5 WSW 12 14 1028.4 - 0.0 - - - - - - -
20/07:30pm 12.7 SW 12 15 1028.2 - 0.0 - - - - - - -
20/07:00pm 12.8 SW 11 14 1028.1 - 0.0 - - - - - - -
20/06:30pm 12.7 SW 15 18 1027.7 - 0.0 - - - - - - -
20/06:00pm 12.6 SW 14 17 1027.4 - 0.0 - - - - - - -
20/05:30pm 11.9 SSE 11 18 1027.2 - 0.0 - - - - - - -
20/05:00pm 11.8 S 16 19 1026.9 - 0.0 - - - - - - -
20/04:30pm 12.5 SSW 18 23 1026.6 - 0.0 - - - - - - -
20/04:00pm 12.9 SSW 18 23 1026.3 - 0.0 - - - - - - -
20/03:30pm 12.8 SW 20 22 1026.0 - 0.0 - - - - - - -
20/03:00pm 13.1 SW 20 24 1025.6 - 0.0 - Mostly cloudy 40 - 1.0 - -
20/02:30pm 13.3 SW 19 23 1025.5 - 0.0 - - - - - - -
20/02:00pm 13.6 SW 17 20 1025.3 - 0.0 - - - - - - -
20/01:30pm 13.8 SW 14 18 1025.3 - 0.0 - - - - - - -
20/01:00pm 13.9 WSW 14 17 1025.5 - 0.0 - - - - - - -
20/12:30pm 13.9 WSW 14 19 1025.6 - 0.0 - - - - - - -
20/12:00pm 14.0 WSW 15 19 1025.6 - 0.0 - - - - - - -
20/11:30am 14.6 WSW 14 17 1026.0 - 0.0 - - - - - - -
20/11:00am 13.8 W 13 16 1026.2 - 0.0 - - - - - - -
20/10:30am 13.1 W 14 17 1026.3 - 0.0 - - - - - - -
20/10:00am 13.0 W 13 16 1026.1 - 0.0 - - - - - - -
20/09:30am 12.0 W 15 18 1025.9 - 0.0 - - - - - - -
20/09:00am 12.3 W 17 20 1025.7 - 0.0 Fine Mostly cloudy 40 2 1.5 10 SE
20/08:30am 11.7 W 17 20 1025.6 - 0.0 - - - - - - -
20/08:00am 11.4 W 17 21 1025.4 - 0.0 - - - - - - -
20/07:30am 11.3 W 17 21 1024.9 - 0.0 - - - - - - -
20/07:00am 11.3 W 18 23 1024.7 - 0.0 - - - - - - -
20/06:30am 11.4 W 18 22 1024.4 - 0.0 - - - - - - -
20/06:00am 11.0 - 14 18 1024.2 - 0.0 - - - - - - -
20/05:30am 11.2 W 14 18 1024.0 - 0.0 - - - - - - -
20/05:00am 11.2 W 14 17 1024.0 - 0.0 - - - - - - -
20/04:30am 11.2 W 15 18 1023.9 - 0.0 - - - - - - -
20/04:00am 11.1 W 15 19 1023.7 - 0.0 - - - - - - -
20/03:30am 11.2 W 15 19 1023.6 - 0.0 - - - - - - -
20/03:00am 11.7 - 14 17 1023.6 - 0.0 Fine Cloudy 30 - 4.0 - SE
20/02:30am 11.8 WSW 16 20 1023.6 - 0.0 - - - - - - -
20/02:00am 11.5 W 16 20 1023.7 - 0.0 - - - - - - -
20/01:30am 11.3 W 15 18 1023.8 - 0.0 - - - - - - -
20/01:00am 11.6 W 15 19 1023.7 - 0.0 - - - - - - -
20/12:30am 11.6 WSW 14 18 1023.6 - 0.0 - - - - - - -
20/12:00am 12.2 WSW 14 18 1023.6 - 0.0 - - - - - - -
 
Date/Time
EST
Temp

°C
Wind Pressure Rain
since 9am
mm
Weather Cloud Vis
km
Sea
Height
m
Swell
Dir
 
Speed
knots
Gust
knots
hPa Trend Height
m
Period
s
Dir
19/11:30pm 13.4 SW 23 27 1023.5 - 0.0 - - - - - - -
19/11:00pm 13.0 WSW 18 23 1023.6 - 0.0 - - - - - - -
19/10:44pm 12.7 W 15 23 1023.6 - 0.0 - - - - - - -
19/10:30pm 13.2 SW 20 23 1023.4 - 0.0 - - - - - - -
19/10:00pm 13.2 SSW 19 23 1023.4 - 0.0 - - - - - - -
19/09:30pm 13.4 SSW 20 25 1023.3 - 0.0 - - - - - - -
19/09:00pm 13.1 - 19 25 1023.4 - 0.0 Fine Mostly cloudy 30 - 4.0 - SE
19/08:30pm 13.4 S 20 24 1023.2 - 0.0 - - - - - - -
19/08:00pm 13.0 SSW 18 21 1023.2 - 0.0 - - - - - - -
19/07:30pm 13.5 SSW 20 28 1023.0 - 0.0 - - - - - - -
19/07:00pm 13.5 SSW 19 23 1022.8 - 0.0 - - - - - - -
19/06:30pm 13.3 SSW 18 23 1022.6 - 0.0 - - - - - - -
19/06:00pm 13.0 - 23 28 1022.4 - 0.0 - - - - - - -
19/05:30pm 13.4 SSW 20 25 1022.1 - 0.0 - - - - - - -
19/05:00pm 13.4 SW 23 27 1021.8 - 0.0 - - - - - - -
19/04:30pm 13.6 SSW 22 27 1021.6 - 0.0 - - - - - - -
19/04:00pm 13.4 SSW 19 23 1021.5 - 0.0 - - - - - - -
19/03:30pm 13.6 SSW 23 27 1021.2 - 0.0 - - - - - - -
19/03:00pm 13.8 SSW 21 27 1021.2 - 0.0 Fine Mostly cloudy 30 3 2.5 10 SE
19/02:30pm 13.6 SSW 20 25 1021.1 - 0.0 - - - - - - -
19/02:00pm 13.5 SSW 22 28 1020.8 - 0.0 - - - - - - -
19/01:30pm 13.9 SSW 22 26 1020.7 - 0.0 - - - - - - -
19/01:00pm 14.6 S 23 27 1020.7 - 0.0 - - - - - - -
19/12:30pm 14.0 SSW 24 28 1020.7 - 0.0 - - - - - - -
19/12:00pm 14.4 S 23 27 1020.9 - 0.0 - - - - - - -
19/11:30am 14.6 SSW 21 25 1021.1 - 0.0 - - - - - - -
19/11:00am 14.6 S 23 26 1021.3 - 0.0 - - - - - - -
19/10:30am 14.3 SSW 22 26 1021.2 - 0.0 - - - - - - -
19/10:00am 14.3 SSW 23 27 1021.0 - 0.0 - - - - - - -
19/09:30am 14.6 SSW 22 25 1020.9 - 0.0 - - - - - - -
19/09:00am 14.6 S 23 27 1020.7 - 2.0 Fine Partly cloudy 30 3 2.5 10 SE
19/08:30am 14.6 S 22 26 1020.4 - 2.0 - - - - - - -
19/08:00am 14.4 S 21 26 1020.2 - 2.0 - - - - - - -
19/07:30am 14.2 S 23 28 1019.9 - 2.0 - - - - - - -
19/07:00am 14.0 S 23 28 1019.4 - 2.0 - - - - - - -
19/06:30am 14.1 S 23 28 1019.1 - 2.0 - - - - - - -
19/06:00am 14.2 - 20 26 1018.8 - 2.0 - - - - - - -
19/05:30am 14.3 S 20 26 1018.6 - 2.0 - - - - - - -
19/05:00am 14.3 S 21 25 1018.4 - 2.0 - - - - - - -
19/04:30am 14.4 S 19 24 1018.1 - 2.0 - - - - - - -
19/04:00am 14.5 S 20 25 1018.0 - 2.0 - - - - - - -
19/03:30am 14.5 SSE 14 18 1017.8 - 2.0 - - - - - - -
19/03:00am 14.6 - 18 22 1017.7 - 2.0 Fine Partly cloudy 25 - 4.0 - SE
19/02:30am 14.6 S 17 21 1017.7 - 2.0 - - - - - - -
19/02:00am 14.7 S 17 21 1017.9 - 2.0 - - - - - - -
19/01:30am 14.7 S 17 23 1018.0 - 2.0 - - - - - - -
19/01:00am 14.6 S 17 23 1017.9 - 2.0 - - - - - - -
19/12:30am 14.8 S 19 23 1017.7 - 2.0 - - - - - - -
19/12:00am 14.2 - 11 23 1017.8 - 2.0 - - - - - - -
 
Date/Time
EST
Temp

°C
Wind Pressure Rain
since 9am
mm
Weather Cloud Vis
km
Sea
Height
m
Swell
Dir
 
Speed
knots
Gust
knots
hPa Trend Height
m
Period
s
Dir
18/11:30pm 14.3 SSE 14 17 1017.8 - 2.0 - - - - - - -
18/11:00pm 14.9 S 17 22 1017.6 - 2.0 - - - - - - -
18/10:30pm 14.9 S 17 21 1017.5 - 2.0 - - - - - - -
18/10:00pm 14.7 S 18 22 1017.5 - 2.0 - - - - - - -
18/09:30pm 14.6 S 17 24 1017.4 - 2.0 - - - - - - -
18/09:00pm 15.0 - 17 22 1017.2 - 2.0 Fine Mostly cloudy 25 - 4.0 - SE
18/08:30pm 14.9 S 17 22 1017.0 - 2.0 - - - - - - -
18/08:00pm 15.0 S 19 24 1016.8 - 2.0 - - - - - - -
18/07:30pm 15.0 S 19 23 1016.7 - 2.0 - - - - - - -
18/07:00pm 14.9 SSE 19 25 1016.4 - 2.0 - - - - - - -
18/06:30pm 15.0 S 17 23 1016.2 - 2.0 - - - - - - -
18/06:00pm 15.0 - 20 23 1015.9 - 2.0 - - - - - - -
18/05:30pm 14.9 SSE 21 26 1015.6 - 2.0 - - - - - - -
18/05:00pm 14.3 SSE 21 26 1015.3 - 2.0 - - - - - - -
18/04:50pm 14.0 S 21 33 1015.2 - 1.8 - - - - - - -
18/04:30pm 14.6 SSE 18 23 1014.9 - 1.4 - - - - - - -
18/04:00pm 14.9 S 17 20 1014.8 - 0.0 - - - - - - -
18/03:30pm 14.7 SSE 19 23 1014.6 - 0.0 - - - - - - -
18/03:00pm 14.9 SE 17 22 1014.6 - 0.0 Fine Cloudy 25 3 30.0 10 SE
18/02:30pm 15.5 S 19 25 1014.1 - 0.0 - - - - - - -
18/02:00pm 14.9 SE 14 20 1014.1 - 0.0 - - - - - - -
18/01:44pm 15.5 SE 14 24 1014.2 - 0.0 - - - - - - -
18/01:30pm 15.9 SSE 20 25 1014.0 - 0.0 - - - - - - -
18/01:00pm 16.2 SSE 22 28 1013.9 - 0.0 - - - - - - -
18/12:30pm 16.2 SSE 19 23 1013.9 - 0.0 - - - - - - -
18/12:00pm 15.4 - 16 22 1014.2 - 0.0 - - - - - - -
18/11:30am 16.1 SSE 17 23 1014.4 - 0.0 - - - - - - -
18/11:00am 16.6 SSE 15 21 1014.6 - 0.0 - - - - - - -
18/10:30am 16.2 SSE 15 20 1014.7 - 0.0 - - - - - - -
18/10:00am 16.1 SE 15 20 1014.5 - 0.0 - - - - - - -
18/09:30am 15.7 SE 14 20 1014.4 - 0.0 - - - - - - -
18/09:00am 15.8 SE 13 19 1014.3 - 18.2 Fine Mostly cloudy 25 2 1.0 10 SE
18/08:30am 15.6 SE 13 18 1014.3 - 18.2 - - - - - - -
18/08:00am 15.5 SE 12 17 1014.4 - 18.2 - - - - - - -
18/07:30am 15.3 SSE 14 19 1014.2 - 18.2 - - - - - - -
18/07:00am 15.1 SE 11 15 1013.9 - 18.2 - - - - - - -
18/06:30am 15.1 SE 11 15 1013.6 - 18.2 - - - - - - -
18/06:00am 15.0 - 10 14 1013.3 - 18.2 - - - - - - -
18/05:30am 14.8 SE 12 15 1013.1 - 18.2 - - - - - - -
18/05:00am 14.1 S 9 10 1012.9 - 18.2 - - - - - - -
18/04:30am 14.0 S 11 12 1012.8 - 18.2 - - - - - - -
18/04:00am 13.7 S 12 13 1012.7 - 18.2 - - - - - - -
18/03:30am 13.8 SSE 10 14 1012.7 - 18.2 - - - - - - -
18/03:00am 13.8 - 8 11 1012.9 - 18.0 Fine Cloudy 30 - 1.0 - S
18/02:30am 13.6 SSE 9 13 1013.0 - 18.0 - - - - - - -
18/02:00am 14.0 SSE 13 16 1013.4 - 17.4 - - - - - - -
18/01:30am 14.1 SSE 12 14 1013.3 - 14.4 - - - - - - -
18/01:00am 13.9 SSE 11 13 1013.5 - 14.2 - - - - - - -
18/12:30am 14.0 S 10 11 1013.6 - 13.4 - - - - - - -
18/12:00am 13.7 - 12 15 1013.3 - 12.0 - - - - - - -
 
Date/Time
EST
Temp

°C
Wind Pressure Rain
since 9am
mm
Weather Cloud Vis
km
Sea
Height
m
Swell
Dir
 
Speed
knots
Gust
knots
hPa Trend Height
m
Period
s
Dir
17/11:30pm 13.8 S 14 16 1013.4 - 11.8 - - - - - - -
17/11:00pm 13.7 S 10 13 1013.6 - 11.6 - - - - - - -

Other Formats:

Comma delimited format used in spreadsheet applications
http://www.bom.gov.au/fwo/IDT60701/IDT60701.94933.axf

JavaScript Object Notation format (JSON) in row-major order
http://www.bom.gov.au/fwo/IDT60701/IDT60701.94933.json